Walnut, Mississippi
Current Conditions -  °F | °C
As of 1:15 AM on Friday 31 Oct 2014 (Local Time) from KCRX Reporting Station
Light Rain Light Rain  
Wind Chill: 52°   Ceiling: 4700
Heat Index: 52°   Visibility: 4mi
Dew Point: 48°   Wind: 6mph
Humidity: 88%   Direction: 190°S
Pressure: 30.02"   Gusts: 12mph
Location:  34.95°N, 88.9°W
Report Text: KCRX 310615Z AUTO 19005G10KT 4SM -RA FEW022 SCT035 BKN047 11/09 A3002 RMK AO2
Loading
Personal Weather Stations






























Interactive Weather Map
Tropical Storm Tracking
New forecast layout! Learn more

10-Day Weather Forecast

Advertisements
Track Severe Weather on mobile